Time;durP1;ratioP1;P1;durP2;ratioP2;P2;SDS_P1;SDS_P2;PMS_P1;PMS_P2;Temp;Humidity;BMP_temperature;BMP_pressure;BME280_temperature;BME280_humidity;BME280_pressure;Samples;Min_cycle;Max_cycle;Signal;HPM_P1;HPM_P2
2021/10/09 00:00:13;;;;;;;;;16.75;15.50;;;;;14.13;73.31;102323.59;5075033;28;45469;-72
2021/10/09 00:02:39;;;;;;;;;17.25;14.50;;;;;14.12;73.76;102321.84;5075216;28;45731;-71
2021/10/09 00:05:06;;;;;;;;;17.75;14.00;;;;;14.08;73.65;102320.22;5074306;28;49832;-72
2021/10/09 00:07:31;;;;;;;;;19.00;15.00;;;;;14.07;73.87;102315.84;5073359;28;45428;-72
2021/10/09 00:10:03;;;;;;;;;18.00;15.50;;;;;14.07;73.59;102319.34;5076524;28;45368;-72
2021/10/09 00:12:28;;;;;;;;;19.50;15.00;;;;;14.06;73.60;102316.78;5073588;28;46482;-72
2021/10/09 00:14:55;;;;;;;;;25.00;16.75;;;;;14.03;73.08;102316.84;5073847;28;45517;-72
2021/10/09 00:17:23;;;;;;;;;17.25;16.00;;;;;14.03;73.70;102316.84;5075041;28;45427;-72
2021/10/09 00:19:48;;;;;;;;;23.25;14.75;;;;;14.01;73.77;102310.78;5073419;28;45463;-72
2021/10/09 00:22:13;;;;;;;;;15.00;13.00;;;;;14.00;73.78;102311.69;5073575;28;45439;-72
2021/10/09 00:24:39;;;;;;;;;17.25;15.00;;;;;13.99;74.22;102312.56;5076272;28;45423;-72
2021/10/09 00:27:04;;;;;;;;;19.00;14.00;;;;;13.99;74.27;102316.13;5074342;28;45507;-72
2021/10/09 00:29:29;;;;;;;;;16.50;15.75;;;;;13.97;74.38;102314.41;5074169;28;45902;-72
2021/10/09 00:31:56;;;;;;;;;17.25;16.00;;;;;13.94;74.06;102310.09;5074252;28;51285;-72
2021/10/09 00:34:21;;;;;;;;;20.25;15.50;;;;;13.94;73.98;102314.50;5074157;27;45879;-72
2021/10/09 00:36:46;;;;;;;;;14.25;13.75;;;;;13.91;74.25;102301.41;5076731;28;45503;-72
2021/10/09 00:39:11;;;;;;;;;15.50;14.25;;;;;13.91;74.19;102310.19;5073294;28;47814;-72
2021/10/09 00:41:37;;;;;;;;;18.00;15.75;;;;;13.87;74.23;102308.56;5073121;28;54164;-72
2021/10/09 00:44:15;;;;;;;;;19.50;17.00;;;;;13.84;74.15;102304.25;5073972;28;45501;-72
2021/10/09 00:46:43;;;;;;;;;14.25;13.50;;;;;13.82;74.20;102303.41;5057355;28;45402;-72
2021/10/09 00:49:14;;;;;;;;;16.75;15.00;;;;;13.81;74.37;102309.63;5075094;28;45413;-72
2021/10/09 00:51:41;;;;;;;;;15.25;13.75;;;;;13.80;74.79;102304.38;5074220;28;47391;-72
2021/10/09 00:54:08;;;;;;;;;17.75;15.50;;;;;13.76;74.72;102308.03;5073784;28;45443;-72
2021/10/09 00:56:36;;;;;;;;;19.50;15.00;;;;;13.72;74.81;102307.25;5073963;28;45605;-72
2021/10/09 00:59:02;;;;;;;;;20.75;14.25;;;;;13.71;74.32;102310.81;5073839;28;45387;-72
2021/10/09 01:01:28;;;;;;;;;21.25;16.25;;;;;13.68;74.61;102302.13;5074267;27;45658;-72
2021/10/09 01:03:54;;;;;;;;;19.50;18.00;;;;;13.65;74.82;102300.44;5075636;28;45363;-72
2021/10/09 01:06:19;;;;;;;;;21.25;16.25;;;;;13.65;75.19;102308.38;5065421;28;45441;-72
2021/10/09 01:08:44;;;;;;;;;16.75;15.25;;;;;13.64;75.25;102303.13;5073212;28;45438;-72
2021/10/09 01:11:10;;;;;;;;;18.50;15.00;;;;;13.64;75.17;102304.00;5073735;28;50721;-72
2021/10/09 01:13:35;;;;;;;;;20.00;17.75;;;;;13.64;75.04;102303.13;5073217;28;45468;-72
2021/10/09 01:16:00;;;;;;;;;18.25;16.25;;;;;13.47;75.29;102277.25;5074365;28;45390;-72
2021/10/09 01:18:26;;;;;;;;;20.75;15.00;;;;;13.59;75.25;102298.00;5073704;28;45503;-72
2021/10/09 01:21:04;;;;;;;;;23.25;16.50;;;;;13.53;75.18;102299.03;5073112;28;46916;-72
2021/10/09 01:23:30;;;;;;;;;20.25;18.00;;;;;13.52;75.27;102299.97;5069429;28;45741;-72
2021/10/09 01:25:56;;;;;;;;;26.25;20.75;;;;;13.53;75.55;102304.31;5072067;28;45666;-72
2021/10/09 01:28:21;;;;;;;;;19.75;15.50;;;;;13.51;75.46;102295.56;5054553;28;45608;-72
2021/10/09 01:30:47;;;;;;;;;20.75;17.00;;;;;13.47;75.38;102301.00;5074338;28;45501;-72
2021/10/09 01:33:13;;;;;;;;;19.75;15.75;;;;;13.47;75.54;102301.88;5072102;28;45714;-72
2021/10/09 01:35:50;;;;;;;;;16.50;15.50;;;;;13.46;75.44;102302.75;5073150;28;45542;-72
2021/10/09 01:38:18;;;;;;;;;18.00;16.00;;;;;13.45;75.74;102301.03;5072181;28;45474;-72
2021/10/09 01:40:43;;;;;;;;;21.25;19.50;;;;;13.41;75.69;102291.47;5071253;28;45406;-72
2021/10/09 01:43:13;;;;;;;;;16.00;12.75;;;;;13.43;75.76;102296.72;5073632;28;45478;-72
2021/10/09 01:45:41;;;;;;;;;19.50;18.50;;;;;13.42;75.79;102300.28;5073601;28;45354;-72
2021/10/09 01:48:07;;;;;;;;;23.50;21.50;;;;;13.37;75.73;102289.00;5072779;28;45446;-72
2021/10/09 01:50:33;;;;;;;;;20.50;15.25;;;;;13.39;75.94;102306.50;5072897;28;46331;-72
2021/10/09 01:52:59;;;;;;;;;21.50;16.25;;;;;13.37;76.06;102296.91;5073638;27;45415;-72
2021/10/09 01:55:24;;;;;;;;;19.25;16.50;;;;;13.32;75.97;102282.06;5057091;28;45311;-72
2021/10/09 01:57:50;;;;;;;;;21.75;16.00;;;;;13.33;75.93;102293.50;5075592;28;45435;-71
2021/10/09 02:00:15;;;;;;;;;19.50;15.75;;;;;13.33;75.87;102288.22;5072396;28;45458;-72
2021/10/09 02:02:40;;;;;;;;;17.50;15.75;;;;;13.31;75.66;102290.00;5072648;28;45414;-72
2021/10/09 02:05:06;;;;;;;;;21.00;16.25;;;;;13.28;75.80;102277.78;5073113;28;45625;-72
2021/10/09 02:07:32;;;;;;;;;22.00;19.25;;;;;13.26;76.16;102291.97;5072369;28;45602;-72
2021/10/09 02:09:57;;;;;;;;;23.00;18.00;;;;;13.25;75.80;102285.78;5073668;28;46116;-72
2021/10/09 02:12:27;;;;;;;;;19.50;12.25;;;;;13.25;75.79;102287.56;5078491;27;45487;-72
2021/10/09 02:15:08;;;;;;;;;19.25;18.00;;;;;13.21;76.31;102286.81;5077253;27;45369;-72
2021/10/09 02:25:45;;;;;;;;;26.25;19.25;;;;;13.17;76.25;102282.50;5071964;28;45435;-72
2021/10/09 02:28:14;;;;;;;;;17.50;15.50;;;;;13.15;76.14;102281.66;5073358;28;45427;-71
2021/10/09 02:30:40;;;;;;;;;27.00;19.00;;;;;13.13;76.11;102280.84;5076964;28;46150;-71
2021/10/09 02:33:06;;;;;;;;;19.50;17.50;;;;;13.12;76.18;102270.34;5075935;28;49677;-72
2021/10/09 02:35:32;;;;;;;;;22.50;19.75;;;;;13.12;76.19;102289.66;5076558;28;45435;-72
2021/10/09 02:37:58;;;;;;;;;22.75;18.75;;;;;13.08;75.98;102277.47;5076106;28;45637;-72
2021/10/09 02:40:23;;;;;;;;;20.00;16.50;;;;;13.08;75.76;102282.75;5075412;28;46336;-72
2021/10/09 02:42:48;;;;;;;;;16.75;15.25;;;;;13.05;76.02;102286.34;5077658;28;46872;-71
2021/10/09 02:45:14;;;;;;;;;21.50;17.75;;;;;13.00;75.79;102276.84;5076641;27;45588;-72
2021/10/09 02:47:39;;;;;;;;;17.75;17.00;;;;;12.97;75.76;102290.97;5076540;28;45364;-72
2021/10/09 02:50:07;;;;;;;;;21.50;17.00;;;;;12.92;75.79;102279.69;5075212;28;46410;-72
2021/10/09 02:52:34;;;;;;;;;21.00;18.50;;;;;12.91;76.25;102279.72;5060032;28;45505;-71
2021/10/09 02:54:59;;;;;;;;;21.25;18.50;;;;;12.87;76.12;102286.84;5076650;28;45372;-72
2021/10/09 02:57:24;;;;;;;;;19.75;18.00;;;;;12.73;76.31;102257.34;5076875;28;45705;-72
2021/10/09 02:59:50;;;;;;;;;27.50;20.25;;;;;12.85;76.43;102279.91;5055873;28;46336;-71
2021/10/09 03:02:15;;;;;;;;;28.50;19.75;;;;;12.82;76.43;102279.97;5075061;28;58301;-72
2021/10/09 03:04:40;;;;;;;;;24.25;21.50;;;;;12.80;76.56;102285.31;5056563;28;45463;-72
2021/10/09 03:07:06;;;;;;;;;29.50;21.75;;;;;12.78;76.43;102281.81;5076478;28;50231;-72
2021/10/09 03:09:31;;;;;;;;;24.75;18.75;;;;;12.78;76.69;102272.13;5076512;28;45405;-71
2021/10/09 03:11:56;;;;;;;;;27.25;21.00;;;;;12.76;76.71;102271.31;5075561;27;48606;-72
2021/10/09 03:14:24;;;;;;;;;22.25;19.00;;;;;12.78;76.71;102271.28;5075464;28;45482;-72
2021/10/09 03:16:49;;;;;;;;;25.00;21.75;;;;;12.74;76.55;102269.66;5075710;28;45512;-72
2021/10/09 03:19:14;;;;;;;;;25.75;22.00;;;;;12.75;76.75;102277.50;5076078;28;45642;-71
2021/10/09 03:21:39;;;;;;;;;25.75;21.25;;;;;12.74;76.73;102278.44;5077286;28;45300;-72
2021/10/09 03:24:05;;;;;;;;;21.25;19.50;;;;;12.75;76.83;102281.94;5075664;28;45867;-71
2021/10/09 03:26:30;;;;;;;;;25.50;20.00;;;;;12.74;77.03;102272.28;5074992;28;46447;-72
2021/10/09 03:28:55;;;;;;;;;24.75;20.00;;;;;12.70;76.69;102271.50;5074182;28;45340;-72
2021/10/09 03:31:21;;;;;;;;;25.25;23.00;;;;;12.68;76.93;102275.06;5074691;28;45509;-72
2021/10/09 03:33:46;;;;;;;;;20.25;18.50;;;;;12.69;76.62;102282.09;5077096;28;52778;-71
2021/10/09 03:36:12;;;;;;;;;33.00;23.50;;;;;12.65;76.89;102289.22;5073619;28;45498;-72
2021/10/09 03:38:38;;;;;;;;;26.25;23.00;;;;;12.66;77.27;102288.31;5074768;28;47177;-72
2021/10/09 03:41:11;;;;;;;;;23.00;21.00;;;;;12.63;77.08;102283.09;5074468;27;45515;-72
2021/10/09 03:43:37;;;;;;;;;24.50;21.50;;;;;12.59;77.34;102283.25;5075574;28;45299;-72
2021/10/09 03:53:56;;;;;;;;;29.50;22.50;;;;;12.54;77.05;102275.47;5075540;28;45445;-72
2021/10/09 03:56:21;;;;;;;;;27.25;24.25;;;;;12.47;77.29;102266.81;5075011;28;46517;-72
2021/10/09 03:58:46;;;;;;;;;29.00;25.50;;;;;12.50;77.61;102281.72;5074831;28;45425;-71
2021/10/09 04:01:12;;;;;;;;;30.75;22.50;;;;;12.41;77.26;102264.34;5074021;28;49288;-72
2021/10/09 04:03:37;;;;;;;;;24.25;23.25;;;;;12.49;77.41;102280.84;5077570;28;45448;-72
2021/10/09 04:06:02;;;;;;;;;26.75;23.00;;;;;12.47;77.34;102277.38;5073796;28;45330;-72
2021/10/09 04:08:28;;;;;;;;;28.50;21.00;;;;;12.44;77.40;102282.75;5063138;28;47109;-72
2021/10/09 04:10:53;;;;;;;;;19.25;18.75;;;;;12.43;77.18;102282.78;5074402;28;45494;-71
2021/10/09 04:13:18;;;;;;;;;30.25;22.50;;;;;12.40;77.76;102282.84;5075073;28;45457;-72
2021/10/09 04:15:44;;;;;;;;;28.50;22.75;;;;;12.37;77.77;102282.91;5075282;28;45390;-72
2021/10/09 04:18:09;;;;;;;;;27.50;25.00;;;;;12.37;77.41;102277.66;5074864;27;46903;-71
2021/10/09 04:20:36;;;;;;;;;28.00;23.75;;;;;12.33;77.14;102283.94;5073692;28;45592;-71
2021/10/09 04:23:01;;;;;;;;;30.50;26.50;;;;;12.32;77.68;102282.16;5074843;28;45389;-71
2021/10/09 04:25:27;;;;;;;;;29.75;27.50;;;;;12.30;77.60;102284.84;5074478;27;45561;-72
2021/10/09 04:27:52;;;;;;;;;34.50;26.75;;;;;12.28;77.68;102284.03;5072331;28;45424;-72
2021/10/09 04:30:17;;;;;;;;;25.50;19.75;;;;;12.30;77.21;102284.00;5074650;28;45557;-72
2021/10/09 04:32:42;;;;;;;;;24.50;22.00;;;;;12.27;77.62;102275.28;5075076;28;45460;-72
2021/10/09 04:35:08;;;;;;;;;33.00;25.00;;;;;12.25;77.58;102274.44;5074082;28;45568;-72
2021/10/09 04:37:33;;;;;;;;;26.00;20.50;;;;;12.22;77.82;102273.66;5056279;28;45997;-72
2021/10/09 04:39:59;;;;;;;;;23.75;20.50;;;;;12.19;77.44;102274.59;5075291;28;45894;-72
2021/10/09 04:42:24;;;;;;;;;31.00;19.50;;;;;12.15;77.73;102278.19;5073086;28;45469;-72
2021/10/09 04:44:49;;;;;;;;;22.50;20.50;;;;;12.13;77.94;102280.00;5073912;28;45449;-72
2021/10/09 04:47:15;;;;;;;;;24.75;21.75;;;;;12.13;77.93;102289.69;5072635;28;50875;-72
2021/10/09 04:49:40;;;;;;;;;29.75;21.25;;;;;12.08;77.84;102287.16;5073887;28;45458;-72
2021/10/09 04:52:05;;;;;;;;;24.00;24.00;;;;;11.98;77.85;102269.84;5074317;28;45288;-72
2021/10/09 04:54:31;;;;;;;;;33.25;24.75;;;;;12.05;78.16;102271.41;5074296;28;45393;-72
2021/10/09 04:56:56;;;;;;;;;26.50;23.00;;;;;12.02;77.92;102277.63;5073546;27;45414;-72
2021/10/09 04:59:21;;;;;;;;;25.33;21.33;;;;;12.00;77.99;102278.56;5073519;28;65318;-71
2021/10/09 05:01:47;;;;;;;;;25.50;22.75;;;;;11.99;77.80;102276.84;5074501;28;45501;-72
2021/10/09 05:04:12;;;;;;;;;29.67;25.00;;;;;11.97;77.72;102278.66;5073168;28;55168;-71
2021/10/09 05:06:37;;;;;;;;;26.75;22.75;;;;;11.93;77.94;102271.72;5072824;28;49129;-72
2021/10/09 05:09:03;;;;;;;;;35.75;26.75;;;;;11.93;77.89;102275.22;5073089;28;45419;-72
2021/10/09 05:11:28;;;;;;;;;24.00;21.00;;;;;11.89;77.86;102262.16;5073813;28;45352;-72
2021/10/09 05:13:54;;;;;;;;;30.50;25.00;;;;;11.90;77.94;102258.63;5073805;28;45421;-71
2021/10/09 05:16:20;;;;;;;;;26.25;23.50;;;;;11.86;78.32;102260.47;5074623;28;46743;-71
2021/10/09 05:18:45;;;;;;;;;30.00;26.25;;;;;11.87;78.21;102267.47;5074914;28;45385;-72
2021/10/09 05:21:10;;;;;;;;;32.25;23.75;;;;;11.85;78.21;102268.41;5072155;28;45383;-72
2021/10/09 05:23:37;;;;;;;;;30.75;27.25;;;;;11.86;78.42;102273.66;5073357;28;49594;-72
2021/10/09 05:26:06;;;;;;;;;28.25;25.00;;;;;11.81;78.52;102261.47;5073789;28;46785;-72
2021/10/09 05:31:08;;;;;;;;;37.50;28.00;;;;;11.83;78.58;102271.06;5075134;28;45333;-72
2021/10/09 05:35:59;;;;;;;;;36.00;30.50;;;;;11.82;78.89;102271.13;5072912;28;46033;-72
2021/10/09 05:38:24;;;;;;;;;35.25;30.25;;;;;11.79;78.93;102257.97;5072099;28;45402;-71
2021/10/09 05:40:50;;;;;;;;;32.00;29.00;;;;;11.81;78.75;102267.59;5073753;28;45357;-72
2021/10/09 05:43:16;;;;;;;;;32.75;26.75;;;;;11.81;78.92;102272.00;5073565;28;45359;-71
2021/10/09 05:45:42;;;;;;;;;33.25;25.75;;;;;11.77;79.37;102272.06;5075685;28;46518;-71
2021/10/09 05:48:08;;;;;;;;;31.50;27.25;;;;;11.77;79.02;102266.78;5073301;28;47878;-72
2021/10/09 05:50:44;;;;;;;;;26.75;24.25;;;;;11.82;78.57;102276.38;5072761;28;45497;-72
2021/10/09 07:00:35;;;;;;;;;38.25;31.75;;;;;12.69;77.86;102340.13;5071392;28;45903;-71
2021/10/09 07:03:00;;;;;;;;;39.50;35.75;;;;;12.83;77.95;102345.03;5067516;28;45515;-71
2021/10/09 07:05:25;;;;;;;;;39.25;32.25;;;;;13.07;78.11;102345.22;5069204;28;45707;-71
2021/10/09 07:07:54;;;;;;;;;42.25;33.50;;;;;13.63;77.73;102348.97;5072038;28;45473;-71
2021/10/09 07:10:20;;;;;;;;;36.50;29.00;;;;;13.96;75.83;102355.84;5062381;28;47222;-71
2021/10/09 07:12:45;;;;;;;;;44.75;34.25;;;;;14.14;75.59;102349.09;5054597;28;49153;-71
2021/10/09 07:15:14;;;;;;;;;41.75;33.25;;;;;14.43;75.10;102355.22;5071908;28;45330;-70
2021/10/09 07:17:40;;;;;;;;;37.50;27.50;;;;;14.78;74.60;102351.44;5073734;28;45596;-73
2021/10/09 07:20:07;;;;;;;;;33.25;28.75;;;;;15.15;73.77;102350.97;5074252;28;45600;-74
2021/10/09 07:22:32;;;;;;;;;45.00;33.00;;;;;15.28;72.65;102359.34;5073416;28;45425;-71
2021/10/09 07:24:58;;;;;;;;;38.25;32.25;;;;;15.89;72.59;102363.22;5075425;28;45563;-69
2021/10/09 07:27:23;;;;;;;;;41.25;32.25;;;;;16.91;71.55;102343.97;5076254;28;45518;-71
2021/10/09 07:29:49;;;;;;;;;41.00;32.25;;;;;18.05;69.52;102352.91;5073702;28;46958;-71
2021/10/09 07:32:15;;;;;;;;;36.25;29.25;;;;;19.21;67.58;102349.66;5073628;27;60996;-71
2021/10/09 07:34:40;;;;;;;;;39.50;31.25;;;;;20.37;64.75;102352.97;5072470;28;45615;-71
2021/10/09 07:37:06;;;;;;;;;33.00;31.75;;;;;21.58;62.37;102358.03;5077091;27;45421;-71
2021/10/09 07:39:32;;;;;;;;;37.50;30.00;;;;;22.20;60.41;102357.63;5070129;28;45658;-71
2021/10/09 07:41:58;;;;;;;;;31.75;30.00;;;;;23.02;59.48;102350.28;5073874;28;45509;-71
2021/10/09 07:44:24;;;;;;;;;36.25;31.50;;;;;24.14;57.82;102362.75;5072689;28;45358;-71
2021/10/09 07:46:50;;;;;;;;;33.75;29.00;;;;;25.12;55.98;102360.66;5075649;27;46770;-71
2021/10/09 07:49:15;;;;;;;;;36.00;32.00;;;;;25.97;53.66;102368.19;5073267;27;46180;-71
2021/10/09 07:51:41;;;;;;;;;24.00;21.50;;;;;26.87;52.40;102365.94;5073820;28;45444;-72
2021/10/09 07:54:06;;;;;;;;;35.00;28.00;;;;;27.69;50.56;102368.63;5071431;27;45497;-72
2021/10/09 07:56:32;;;;;;;;;34.00;28.25;;;;;28.61;50.42;102368.31;5069598;28;45705;-74
2021/10/09 07:58:57;;;;;;;;;150.00;116.50;;;;;29.25;47.50;102373.03;5060636;28;46444;-72
2021/10/09 08:01:23;;;;;;;;;43.25;32.75;;;;;29.91;45.60;102371.97;5071907;27;45554;-71
2021/10/09 08:03:48;;;;;;;;;29.75;29.00;;;;;30.60;44.86;102367.75;5073466;28;45537;-71
2021/10/09 08:06:13;;;;;;;;;28.00;26.75;;;;;31.29;43.78;102383.16;5068359;27;45555;-71
2021/10/09 08:08:39;;;;;;;;;29.25;28.50;;;;;31.92;42.33;102373.75;5074961;27;46303;-72
2021/10/09 08:11:05;;;;;;;;;32.25;28.25;;;;;32.51;42.93;102385.38;5061113;28;45588;-72
2021/10/09 08:13:30;;;;;;;;;37.25;30.00;;;;;32.90;40.70;102393.72;5066743;28;45506;-72
2021/10/09 08:15:56;;;;;;;;;34.25;30.00;;;;;33.37;39.04;102392.06;5068268;28;45339;-72
2021/10/09 08:18:22;;;;;;;;;34.00;29.75;;;;;33.86;37.84;102392.69;5061242;28;46337;-73
2021/10/09 08:20:50;;;;;;;;;30.00;24.50;;;;;34.33;37.63;102391.72;5063658;27;45674;-72
2021/10/09 08:23:20;;;;;;;;;30.25;28.25;;;;;34.80;36.01;102390.66;5065148;28;45506;-72
2021/10/09 08:38:50;;;;;;;;;28.50;25.00;;;;;37.35;31.54;102393.00;5075808;27;46056;-73
2021/10/09 08:41:16;;;;;;;;;77.50;68.25;;;;;37.46;30.81;102389.72;5069804;28;45557;-72
2021/10/09 08:43:43;;;;;;;;;32.25;29.50;;;;;35.98;31.45;102387.03;5071798;28;45475;-73
2021/10/09 08:46:08;;;;;;;;;27.25;25.50;;;;;36.05;31.55;102386.06;5071322;28;45409;-73
2021/10/09 08:48:40;;;;;;;;;29.00;26.50;;;;;36.77;30.87;102385.03;5063422;28;46757;-73
2021/10/09 08:51:06;;;;;;;;;29.00;24.25;;;;;37.95;30.30;102376.78;5067230;27;45316;-73
2021/10/09 08:53:40;;;;;;;;;28.00;26.25;;;;;38.56;28.58;102388.50;5068238;28;46843;-73
2021/10/09 08:56:06;;;;;;;;;28.50;26.50;;;;;39.07;28.84;102379.56;5069034;28;45576;-72
2021/10/09 08:58:37;;;;;;;;;28.50;26.00;;;;;39.40;29.14;102393.22;5065066;27;45685;-74
2021/10/09 09:01:09;;;;;;;;;28.75;25.50;;;;;39.78;27.96;102386.06;5075799;28;45398;-73
2021/10/09 09:06:59;;;;;;;;;30.25;26.25;;;;;40.76;26.51;102396.59;5068773;28;45490;-75
2021/10/09 09:31:11;;;;;;;;;31.50;26.25;;;;;40.74;23.58;102388.56;5062242;28;46213;-70
2021/10/09 09:38:57;;;;;;;;;27.25;24.25;;;;;38.77;24.53;102373.72;5066671;28;45533;-71
2021/10/09 09:41:24;;;;;;;;;27.75;25.50;;;;;38.12;25.14;102370.72;5068758;28;50236;-69
2021/10/09 09:43:52;;;;;;;;;25.00;23.25;;;;;37.80;25.51;102369.56;5072270;27;45386;-73
2021/10/09 09:46:23;;;;;;;;;27.25;24.00;;;;;37.31;26.79;102373.34;5057530;28;45277;-70
2021/10/09 09:48:51;;;;;;;;;27.00;23.00;;;;;36.70;25.94;102373.19;5060634;28;45570;-70
2021/10/09 09:51:18;;;;;;;;;28.50;26.25;;;;;36.18;26.19;102363.47;5067020;28;45549;-70
2021/10/09 09:53:47;;;;;;;;;29.75;23.50;;;;;35.76;27.41;102361.50;5066360;28;45904;-69
2021/10/09 09:56:13;;;;;;;;;51.75;41.50;;;;;35.58;27.16;102352.88;5063294;27;45986;-70
2021/10/09 09:58:44;;;;;;;;;28.00;25.00;;;;;35.54;27.21;102360.63;5069165;28;45623;-70
2021/10/09 10:01:12;;;;;;;;;25.50;24.50;;;;;35.30;27.39;102354.41;5060486;27;45750;-68
2021/10/09 10:03:45;;;;;;;;;26.00;24.75;;;;;35.17;27.07;102348.75;5060196;28;45574;-69
2021/10/09 10:06:11;;;;;;;;;26.00;24.00;;;;;35.21;27.34;102344.63;5067702;28;45524;-70
2021/10/09 10:08:41;;;;;;;;;25.50;21.75;;;;;35.48;27.75;102348.56;5061902;28;45418;-69
2021/10/09 10:11:08;;;;;;;;;23.50;22.25;;;;;35.65;27.64;102345.59;5059802;28;45336;-69
2021/10/09 10:13:35;;;;;;;;;28.00;21.75;;;;;35.50;27.23;102337.44;5070745;27;45463;-71
2021/10/09 10:16:06;;;;;;;;;22.25;20.75;;;;;35.11;27.82;102356.88;5065826;28;45833;-71
2021/10/09 10:18:43;;;;;;;;;25.50;23.25;;;;;34.59;28.66;102350.41;5066489;28;45420;-71
2021/10/09 10:21:10;;;;;;;;;29.75;21.50;;;;;34.07;28.57;102344.84;5070230;27;46224;-71
2021/10/09 10:23:37;;;;;;;;;20.00;18.50;;;;;33.42;29.18;102338.75;5059385;28;45487;-71
2021/10/09 10:26:21;;;;;;;;;23.00;20.00;;;;;32.77;29.46;102346.22;5062184;28;45609;-71
2021/10/09 10:29:15;;;;;;;;;22.00;22.00;;;;;32.27;29.84;102347.28;5068965;28;45773;-72
2021/10/09 10:32:07;;;;;;;;;20.50;20.50;;;;;31.65;29.65;102344.94;5055737;28;46805;-71
2021/10/09 10:34:32;;;;;;;;;17.75;15.75;;;;;31.01;30.33;102343.59;5065680;28;45529;-71
2021/10/09 10:36:57;;;;;;;;;21.50;18.75;;;;;30.59;30.36;102345.19;5060337;28;45540;-71
2021/10/09 10:39:38;;;;;;;;;25.25;21.75;;;;;30.14;30.92;102346.16;5067137;28;45367;-71
2021/10/09 10:42:08;;;;;;;;;21.50;19.75;;;;;29.77;31.71;102351.69;5066114;28;46494;-71
2021/10/09 10:45:10;;;;;;;;;24.25;21.25;;;;;29.47;31.74;102343.84;5059693;28;45609;-70
2021/10/09 10:51:07;;;;;;;;;25.00;21.25;;;;;28.99;32.64;102347.63;5069108;28;46431;-71
2021/10/09 10:53:59;;;;;;;;;22.25;18.75;;;;;28.86;32.96;102342.47;5061996;27;47380;-71
2021/10/09 10:56:24;;;;;;;;;33.50;27.00;;;;;28.67;32.90;102340.69;5066681;28;45661;-71
2021/10/09 10:59:09;;;;;;;;;23.00;20.50;;;;;28.55;32.81;102339.97;5072162;28;45491;-71
2021/10/09 11:01:35;;;;;;;;;22.50;20.00;;;;;28.29;33.13;102336.97;5056733;28;45284;-71
2021/10/09 11:04:00;;;;;;;;;20.75;18.75;;;;;27.94;33.73;102339.41;5058019;28;51093;-73
2021/10/09 11:06:26;;;;;;;;;20.75;18.25;;;;;27.66;33.82;102338.31;5072012;28;45572;-71
2021/10/09 11:08:54;;;;;;;;;24.25;20.75;;;;;27.39;34.27;102325.44;5064095;27;45746;-70
2021/10/09 11:11:42;;;;;;;;;19.75;16.75;;;;;27.24;34.22;102336.63;5062984;27;45616;-69
2021/10/09 11:14:07;;;;;;;;;23.00;18.75;;;;;27.04;34.83;102330.28;5068464;28;45506;-69
2021/10/09 11:16:33;;;;;;;;;20.75;18.50;;;;;27.03;35.00;102330.38;5070811;28;45430;-69
2021/10/09 11:18:58;;;;;;;;;22.75;22.25;;;;;26.83;35.28;102329.41;5071571;27;45369;-69
2021/10/09 11:21:24;;;;;;;;;19.50;19.50;;;;;26.75;35.54;102323.84;5070657;28;45312;-69
2021/10/09 11:23:52;;;;;;;;;22.75;18.75;;;;;26.75;35.91;102331.94;5069090;28;47416;-71
2021/10/09 11:26:18;;;;;;;;;20.00;17.00;;;;;26.51;35.43;102324.13;5071749;27;45750;-71
2021/10/09 11:28:44;;;;;;;;;21.00;19.75;;;;;26.22;35.67;102327.44;5071750;27;45539;-73
2021/10/09 11:31:20;;;;;;;;;22.00;19.75;;;;;26.12;36.26;102328.34;5085152;27;45436;-71
2021/10/09 11:33:46;;;;;;;;;20.00;18.50;;;;;26.05;36.42;102333.38;5073408;28;46794;-71
2021/10/09 11:36:11;;;;;;;;;22.25;18.75;;;;;25.96;36.80;102336.84;5065664;28;45177;-70
2021/10/09 11:38:36;;;;;;;;;24.75;20.25;;;;;25.81;36.26;102335.41;5072241;28;45588;-70
2021/10/09 11:41:12;;;;;;;;;21.50;19.75;;;;;25.62;37.09;102327.94;5052062;28;45737;-70
2021/10/09 11:43:54;;;;;;;;;24.00;20.25;;;;;25.44;36.86;102335.69;5068134;27;45449;-70
2021/10/09 11:46:45;;;;;;;;;23.00;20.50;;;;;25.24;37.09;102334.59;5072012;28;45439;-71
2021/10/09 11:55:17;;;;;;;;;26.00;22.25;;;;;24.78;38.05;102324.75;5068942;28;45592;-70
2021/10/09 11:57:43;;;;;;;;;21.00;18.00;;;;;24.63;38.10;102321.41;5072446;28;45410;-70
2021/10/09 12:00:27;;;;;;;;;20.00;18.25;;;;;24.48;37.98;102311.84;5071976;28;45478;-71
2021/10/09 12:02:52;;;;;;;;;20.75;18.25;;;;;24.33;38.82;102311.16;5073977;28;45469;-71
2021/10/09 12:05:18;;;;;;;;;22.50;18.75;;;;;24.29;38.91;102320.44;5069984;28;46307;-71
2021/10/09 12:08:17;;;;;;;;;24.00;20.25;;;;;24.28;39.16;102316.03;5074882;28;45482;-71
2021/10/09 12:11:13;;;;;;;;;21.25;20.00;;;;;24.17;38.92;102307.91;5070446;28;46833;-71
2021/10/09 12:13:44;;;;;;;;;32.50;28.25;;;;;24.17;39.46;102315.97;5074838;28;45628;-70
2021/10/09 12:16:10;;;;;;;;;17.75;16.75;;;;;24.19;39.27;102320.28;5075663;27;46452;-72
2021/10/09 12:18:48;;;;;;;;;23.25;18.25;;;;;24.11;39.25;102316.44;5063428;27;45507;-71
2021/10/09 12:21:14;;;;;;;;;24.75;19.25;;;;;24.08;39.33;102314.84;5073602;28;45653;-71
2021/10/09 12:23:40;;;;;;;;;21.75;18.25;;;;;23.93;39.31;102310.63;5071282;27;45846;-71
2021/10/09 12:26:11;;;;;;;;;22.25;16.25;;;;;23.81;39.63;102301.66;5075810;28;45875;-71
2021/10/09 12:29:03;;;;;;;;;21.50;17.75;;;;;23.71;39.37;102300.63;5074576;28;45386;-71
2021/10/09 12:31:30;;;;;;;;;18.75;16.25;;;;;23.64;39.70;102307.41;5068374;27;45654;-70
2021/10/09 12:33:55;;;;;;;;;19.00;15.75;;;;;23.51;39.49;102303.88;5069320;28;45379;-70
2021/10/09 12:36:34;;;;;;;;;15.25;14.00;;;;;23.30;40.03;102301.78;5069660;27;47174;-70
2021/10/09 12:39:20;;;;;;;;;20.00;14.25;;;;;23.23;40.38;102296.94;5071954;27;45510;-70
2021/10/09 12:41:45;;;;;;;;;19.00;16.50;;;;;23.22;40.13;102287.19;5073564;27;45475;-71
2021/10/09 12:44:10;;;;;;;;;19.75;15.50;;;;;23.17;40.15;102282.16;5069690;28;45546;-70
2021/10/09 12:46:36;;;;;;;;;23.50;20.25;;;;;23.15;40.14;102290.31;5069425;28;55206;-70
2021/10/09 12:49:01;;;;;;;;;19.25;18.25;;;;;23.08;40.10;102278.34;5072779;28;55694;-70
2021/10/09 12:51:26;;;;;;;;;19.00;16.50;;;;;22.99;40.74;102281.66;5072617;27;45622;-71
2021/10/09 12:53:55;;;;;;;;;16.75;15.75;;;;;22.85;40.81;102273.69;5069056;28;48387;-70
2021/10/09 12:56:21;;;;;;;;;17.25;16.25;;;;;22.74;40.71;102284.31;5076002;27;46500;-70
2021/10/09 12:58:46;;;;;;;;;17.25;16.00;;;;;22.61;41.03;102277.13;5070848;28;45525;-70
2021/10/09 13:01:11;;;;;;;;;24.50;18.50;;;;;22.65;41.52;102280.44;5067910;28;45567;-70
2021/10/09 13:03:37;;;;;;;;;18.50;16.25;;;;;22.70;41.70;102278.31;5053716;28;45358;-70
2021/10/09 13:06:02;;;;;;;;;23.25;17.50;;;;;22.73;42.07;102286.13;5067460;28;48079;-70
2021/10/09 13:08:27;;;;;;;;;19.25;17.75;;;;;22.71;41.82;102268.44;5069431;28;45422;-70
2021/10/09 13:10:54;;;;;;;;;19.25;17.50;;;;;22.70;41.85;102274.75;5067324;28;49872;-71
2021/10/09 13:13:20;;;;;;;;;20.00;18.50;;;;;22.58;41.74;102274.66;5068791;27;45643;-70
2021/10/09 13:15:45;;;;;;;;;18.25;17.00;;;;;22.55;42.49;102274.00;5069891;27;52577;-70
2021/10/09 13:18:10;;;;;;;;;20.25;16.75;;;;;22.47;42.25;102273.69;5070595;28;45547;-70
2021/10/09 13:20:37;;;;;;;;;18.50;15.50;;;;;22.40;42.34;102268.75;5068651;28;45569;-70
2021/10/09 13:23:03;;;;;;;;;18.75;17.75;;;;;22.29;42.81;102254.38;5070263;28;45457;-70
2021/10/09 13:25:30;;;;;;;;;18.25;16.00;;;;;22.27;42.89;102264.34;5072742;28;45589;-70
2021/10/09 13:27:56;;;;;;;;;18.50;17.00;;;;;22.27;43.08;102264.34;5074525;28;45510;-70
2021/10/09 13:30:21;;;;;;;;;17.25;15.25;;;;;22.30;43.38;102275.72;5068016;28;45550;-70
2021/10/09 13:32:47;;;;;;;;;20.50;16.50;;;;;22.25;43.49;102269.81;5067428;28;45466;-70